Airfield :
LOGIN :

Register | Disclaimer

   EN    FR    IT 

 










Legend :    VFR   Marginal VFR   IFR   Intensive IFR   Very Intensive IFR
Visi :
Ceiling :
>= 8 km
>= 3000ft
5 to 8 km
1000 to 3000 ft
1500m to 5 km
500 to 1000 ft
800 to 1500m
200 to 500 ft
< 800m
< 200 ft
Symbols :   Thunderstorms  Fog  Heavy snow  Heavy precipitations  Wind > 20 kt
SIGMETs :     Misc.  Thunderstorms  Icing  Turbulence  Mountain Waves  Volcanic Ashes







- Airport Elevation : 622 ft
- IATA code : BRS
- Download approach charts


EGGD - Bristol Int.

CURRENT METAR :
  • 241450Z AUTO 26013KT 9999 NCD 11/03 Q1030

EXPIRED METARs :
  • 241420Z AUTO 27010KT 9999 NCD 11/03 Q1030
  • 241350Z AUTO 30010KT 250V330 9999 NCD 11/02 Q1030
  • 241320Z AUTO 29009KT 250V320 9999 NCD 11/02 Q1031
  • 241250Z AUTO 28008KT 240V320 9999 NCD 11/02 Q1031
  • 241220Z AUTO 28008KT 250V320 9999 NCD 11/02 Q1031
  • 241150Z AUTO 32007KT 280V350 9999 FEW035 11/02 Q1032

TAF TAF EGGD
Valid from the 24 at 12:00 until the 25 at 12:00 UTC


241056Z 2412/2512 29010KT 9999 FEW040
PROB30
TEMPO 2503/2506 28015G25KT 8000 -SHRA BKN014
BECMG 2509/2512 01008KT
ATIS : +44 1275 473 666
No reported NOTAMs for that airfield.



MET'MAP, your aeronautical weather chart ! - Copyright ORBIFLY December 2007 - Disclaimer

ORBIFLY MET'MAP TEAM :

Programming & Development : Alexandra Zaïnal
Concept & Development : Baudouin d'Aumeries
Co-Development & Prog : Marc-Olivier Méhu
Technical & hardware support : Manuel Goepfert

Contact : metmap@orbifly.com




SOURCES & CREDITS :

   NOAA